Time;durP1;ratioP1;P1;durP2;ratioP2;P2;SDS_P1;SDS_P2;PMS_P1;PMS_P2;Temp;Humidity;BMP_temperature;BMP_pressure;BME280_temperature;BME280_humidity;BME280_pressure;Samples;Min_cycle;Max_cycle;Signal;HPM_P1;HPM_P2
2022/08/24 00:01:09;;;;;;;2.00;1.80;;;26.10;47.00;;;;;;6144517;23;20404;-85
2022/08/24 00:03:43;;;;;;;1.80;1.70;;;26.10;47.10;;;;;;6144961;23;20384;-85
2022/08/24 00:06:36;;;;;;;1.80;1.57;;;26.10;47.10;;;;;;6145144;23;20424;-85
2022/08/24 00:09:22;;;;;;;1.80;1.50;;;26.10;47.00;;;;;;6141297;23;20377;-85
2022/08/24 00:12:11;;;;;;;1.93;1.70;;;26.10;47.10;;;;;;6143824;23;20377;-85
2022/08/24 00:14:49;;;;;;;1.97;1.77;;;26.10;47.10;;;;;;6144171;23;20377;-85
2022/08/24 00:17:38;;;;;;;2.17;1.77;;;26.10;47.30;;;;;;6144586;23;20672;-85
2022/08/24 00:20:22;;;;;;;;;;;;;;;;;;;;;
2022/08/24 00:23:04;;;;;;;2.50;2.07;;;26.10;47.10;;;;;;6146018;23;20373;-85
2022/08/24 00:25:35;;;;;;;2.73;2.00;;;26.10;47.10;;;;;;6145082;23;20535;-86
2022/08/24 00:28:14;;;;;;;2.00;1.77;;;26.10;47.20;;;;;;6144817;23;20392;-85
2022/08/24 00:30:52;;;;;;;2.07;1.87;;;26.10;47.20;;;;;;6144085;23;20384;-85
2022/08/24 00:33:38;;;;;;;;;;;;;;;;;;;;;
2022/08/24 00:36:24;;;;;;;2.40;1.70;;;26.10;47.20;;;;;;6145045;23;20372;-85
2022/08/24 00:38:59;;;;;;;1.70;1.60;;;26.10;47.10;;;;;;6141001;23;20391;-85
2022/08/24 00:41:39;;;;;;;2.07;1.77;;;26.10;47.20;;;;;;6145033;23;20360;-85
2022/08/24 00:44:16;;;;;;;2.00;1.80;;;26.10;47.20;;;;;;6145694;23;20377;-84
2022/08/24 00:47:02;;;;;;;3.00;1.73;;;26.10;47.20;;;;;;6145833;23;20372;-84
2022/08/24 00:49:54;;;;;;;2.10;1.90;;;26.10;47.20;;;;;;6147054;23;20416;-84
2022/08/24 00:52:55;;;;;;;2.60;2.30;;;26.10;47.20;;;;;;6145611;23;20366;-84
2022/08/24 00:55:35;;;;;;;2.17;1.70;;;26.10;47.20;;;;;;6146244;23;20810;-84
2022/08/24 00:58:19;;;;;;;2.37;2.17;;;26.10;47.20;;;;;;6146189;23;20397;-85
2022/08/24 01:01:02;;;;;;;2.83;2.20;;;26.10;47.20;;;;;;6145724;23;20695;-85
2022/08/24 01:03:41;;;;;;;1.60;1.50;;;26.10;47.30;;;;;;6146099;23;20448;-85
2022/08/24 01:06:28;;;;;;;2.03;1.80;;;26.10;47.30;;;;;;6145781;23;20425;-84
2022/08/24 01:09:07;;;;;;;2.33;2.13;;;26.10;47.20;;;;;;6144887;23;20385;-84
2022/08/24 01:11:57;;;;;;;2.30;2.10;;;26.10;47.30;;;;;;6144538;23;20381;-84
2022/08/24 01:14:57;;;;;;;;;;;;;;;;;;;;;
2022/08/24 01:20:32;;;;;;;3.20;1.93;;;26.10;47.30;;;;;;6145553;23;20359;-85
2022/08/24 01:23:18;;;;;;;3.73;2.20;;;26.10;47.30;;;;;;6121704;23;20397;-85
2022/08/24 01:25:59;;;;;;;1.90;1.80;;;26.10;47.30;;;;;;6143738;23;20424;-86
2022/08/24 01:28:39;;;;;;;2.10;1.90;;;26.10;47.30;;;;;;6119704;23;20396;-85
2022/08/24 01:31:18;;;;;;;3.57;2.40;;;26.00;47.20;;;;;;6145534;23;20617;-85
2022/08/24 01:33:52;;;;;;;2.87;2.63;;;26.10;47.30;;;;;;6144095;23;20374;-86
2022/08/24 01:37:07;;;;;;;2.20;1.87;;;26.10;47.30;;;;;;6145390;23;20357;-86
2022/08/24 01:39:47;;;;;;;2.50;2.10;;;26.10;47.30;;;;;;6137683;23;20381;-86
2022/08/24 01:42:33;;;;;;;1.70;1.60;;;26.00;47.30;;;;;;6144214;23;20749;-86
2022/08/24 01:45:16;;;;;;;2.43;2.23;;;26.00;47.30;;;;;;6143894;23;20448;-85
2022/08/24 01:47:51;;;;;;;2.20;2.00;;;26.10;47.40;;;;;;6119065;23;20439;-85
2022/08/24 01:50:46;;;;;;;1.63;1.53;;;26.00;47.40;;;;;;6142947;23;20444;-85
2022/08/24 01:53:26;;;;;;;2.20;2.00;;;26.10;47.40;;;;;;6145436;23;20369;-85
2022/08/24 01:56:09;;;;;;;1.80;1.70;;;26.00;47.40;;;;;;6143910;23;20429;-85
2022/08/24 01:58:43;;;;;;;3.03;2.37;;;26.00;47.40;;;;;;6144015;23;20388;-85
2022/08/24 02:01:17;;;;;;;2.40;2.20;;;26.10;47.50;;;;;;6143967;23;20380;-85
2022/08/24 02:06:59;;;;;;;2.33;2.13;;;26.00;47.40;;;;;;6144645;23;20373;-85
2022/08/24 02:09:37;;;;;;;2.13;1.93;;;26.00;47.40;;;;;;6123281;23;20412;-85
2022/08/24 02:12:14;;;;;;;2.83;2.20;;;26.00;47.40;;;;;;6145311;23;20349;-85
2022/08/24 02:15:07;;;;;;;4.63;1.97;;;26.00;47.40;;;;;;6143920;23;20377;-85
2022/08/24 02:20:42;;;;;;;1.97;1.80;;;26.00;47.40;;;;;;6145249;23;20377;-84
2022/08/24 02:23:15;;;;;;;2.17;1.80;;;26.00;47.40;;;;;;6142282;23;20387;-82
2022/08/24 02:25:51;;;;;;;2.70;2.50;;;26.00;47.50;;;;;;6138543;23;20425;-82
2022/08/24 02:28:23;;;;;;;2.27;1.93;;;26.00;47.40;;;;;;6138825;23;20468;-82
2022/08/24 02:30:53;;;;;;;2.50;2.23;;;26.00;47.40;;;;;;6139101;23;20379;-82
2022/08/24 02:33:24;;;;;;;1.73;1.63;;;26.00;47.50;;;;;;6138451;23;20449;-82
2022/08/24 02:36:12;;;;;;;;;;;;;;;;;;;;;
2022/08/24 02:38:43;;;;;;;3.03;2.20;;;26.00;47.40;;;;;;6144502;23;20377;-84
2022/08/24 02:41:30;;;;;;;1.90;1.80;;;26.00;47.50;;;;;;6083589;23;20785;-84
2022/08/24 02:43:59;;;;;;;2.30;2.10;;;26.00;47.50;;;;;;6135551;23;20663;-83
2022/08/24 02:49:29;;;;;;;2.47;2.23;;;26.00;47.50;;;;;;6145348;23;20356;-85
2022/08/24 02:52:04;;;;;;;2.37;2.17;;;26.00;47.50;;;;;;6142737;23;20380;-84
2022/08/24 02:54:41;;;;;;;2.40;2.20;;;26.00;47.50;;;;;;6145402;23;20384;-85
2022/08/24 02:57:14;;;;;;;4.47;2.37;;;26.00;47.50;;;;;;6148092;23;20692;-82
2022/08/24 02:59:44;;;;;;;2.10;1.90;;;26.00;47.50;;;;;;6143627;23;20443;-82
2022/08/24 03:02:23;;;;;;;2.33;1.87;;;26.00;47.60;;;;;;6142520;23;20376;-82
2022/08/24 03:05:00;;;;;;;2.30;2.10;;;26.00;47.60;;;;;;6170123;23;20500;-82
2022/08/24 03:07:45;;;;;;;2.60;2.20;;;26.00;47.60;;;;;;6143979;23;20379;-82
2022/08/24 03:10:17;;;;;;;2.83;2.20;;;26.00;47.60;;;;;;6144044;23;20369;-82
2022/08/24 03:12:49;;;;;;;2.13;1.93;;;26.00;47.60;;;;;;6144079;23;20386;-82
2022/08/24 03:15:47;;;;;;;3.87;2.27;;;25.90;47.60;;;;;;6145660;23;20431;-84
2022/08/24 03:18:27;;;;;;;;;;;;;;;;;;;;;
2022/08/24 03:21:05;;;;;;;2.70;2.07;;;25.90;47.60;;;;;;6171395;23;20388;-84
2022/08/24 03:23:56;;;;;;;2.93;2.20;;;25.90;47.60;;;;;;6145345;23;20384;-83
2022/08/24 03:26:29;;;;;;;2.67;2.20;;;26.00;47.70;;;;;;6149926;23;20411;-84
2022/08/24 03:29:17;;;;;;;;;;;;;;;;;;;;;
2022/08/24 03:32:05;;;;;;;3.50;2.60;;;25.90;47.60;;;;;;6171565;23;20380;-83
2022/08/24 03:34:45;;;;;;;2.87;2.53;;;25.90;47.60;;;;;;6144606;23;20389;-83
2022/08/24 03:44:14;;;;;;;2.80;2.17;;;25.90;47.60;;;;;;6175517;23;20459;-85
2022/08/24 03:46:59;;;;;;;1.97;1.87;;;25.90;47.70;;;;;;6148232;23;20695;-85
2022/08/24 03:49:36;;;;;;;2.30;2.10;;;25.90;47.70;;;;;;6150696;23;20452;-85
2022/08/24 03:52:18;;;;;;;2.47;2.27;;;25.90;47.70;;;;;;6149242;23;20368;-85
2022/08/24 03:54:58;;;;;;;2.43;2.00;;;25.90;47.70;;;;;;6118993;23;20392;-85
2022/08/24 04:01:04;;;;;;;2.00;1.80;;;25.90;47.70;;;;;;6085959;23;20378;-85
2022/08/24 04:04:16;;;;;;;2.80;2.60;;;25.90;47.70;;;;;;6086763;23;20402;-85
2022/08/24 04:07:06;;;;;;;2.23;1.80;;;25.80;47.70;;;;;;6061874;23;20387;-85
2022/08/24 04:09:50;;;;;;;2.10;1.90;;;25.80;47.70;;;;;;6002001;24;20793;-84
2022/08/24 04:12:52;;;;;;;3.03;2.30;;;25.80;47.70;;;;;;6001428;24;20485;-86
2022/08/24 04:15:30;;;;;;;2.90;2.53;;;25.80;47.70;;;;;;6001857;24;20392;-84
2022/08/24 04:18:00;;;;;;;2.63;2.43;;;25.80;47.70;;;;;;5978495;24;20410;-84
2022/08/24 04:20:46;;;;;;;3.07;2.40;;;25.80;47.70;;;;;;5977417;24;20396;-84
2022/08/24 04:26:23;;;;;;;2.60;2.40;;;25.90;47.70;;;;;;6000411;24;20490;-84
2022/08/24 04:32:25;;;;;;;3.20;2.40;;;25.80;47.70;;;;;;6054953;23;20379;-84
2022/08/24 04:35:26;;;;;;;2.10;1.90;;;25.80;47.70;;;;;;6056724;23;20423;-83
2022/08/24 04:38:27;;;;;;;2.30;2.10;;;25.80;47.70;;;;;;6030613;23;20404;-82
2022/08/24 04:41:00;;;;;;;4.07;2.37;;;25.80;47.70;;;;;;6053891;23;20403;-83
2022/08/24 04:44:22;;;;;;;2.70;2.50;;;25.80;47.70;;;;;;6030796;23;20388;-82
2022/08/24 04:46:54;;;;;;;2.70;2.50;;;25.80;47.70;;;;;;6128429;23;20447;-82
2022/08/24 04:49:28;;;;;;;2.83;2.57;;;25.80;47.70;;;;;;6147299;23;20387;-82
2022/08/24 04:52:15;;;;;;;2.67;2.47;;;25.80;47.70;;;;;;6147329;23;20372;-82
2022/08/24 04:55:10;;;;;;;2.60;2.40;;;25.80;47.70;;;;;;6140724;23;20376;-84
2022/08/24 04:57:46;;;;;;;2.73;2.50;;;25.80;47.70;;;;;;6136920;23;20409;-83
2022/08/24 05:00:32;;;;;;;;;;;;;;;;;;;;;
2022/08/24 05:03:14;;;;;;;2.73;2.50;;;25.80;47.70;;;;;;6143349;23;20373;-84
2022/08/24 05:05:50;;;;;;;2.70;2.50;;;25.80;47.80;;;;;;6141763;23;20427;-84
2022/08/24 05:08:32;;;;;;;2.90;2.60;;;25.80;47.70;;;;;;6142049;23;20384;-84
2022/08/24 05:11:14;;;;;;;2.97;2.73;;;25.80;47.70;;;;;;6141473;23;20400;-84
2022/08/24 05:13:47;;;;;;;3.20;2.60;;;25.80;47.70;;;;;;6140907;23;20689;-83
2022/08/24 05:16:44;;;;;;;2.90;2.70;;;25.80;47.80;;;;;;6092088;23;20385;-84
2022/08/24 05:19:22;;;;;;;3.20;2.50;;;25.80;47.70;;;;;;6140859;23;20384;-84
2022/08/24 05:22:04;;;;;;;2.60;2.40;;;25.80;47.70;;;;;;6139641;23;20380;-83
2022/08/24 05:31:22;;;;;;;3.30;2.83;;;25.80;47.80;;;;;;6143085;23;20349;-83
2022/08/24 05:33:52;;;;;;;3.20;2.90;;;25.80;47.80;;;;;;6142100;23;20380;-83
2022/08/24 05:36:43;;;;;;;2.90;2.47;;;25.80;47.80;;;;;;6141620;23;20381;-82
2022/08/24 05:39:37;;;;;;;3.40;3.10;;;25.80;47.90;;;;;;6143639;23;20381;-85
2022/08/24 05:42:20;;;;;;;3.60;2.63;;;25.80;47.80;;;;;;6143258;23;20381;-85
2022/08/24 05:51:30;;;;;;;2.63;2.17;;;25.80;47.80;;;;;;6110889;23;20714;-83
2022/08/24 05:54:19;;;;;;;;;;;;;;;;;;;;;
2022/08/24 05:57:03;;;;;;;3.30;3.00;;;25.80;47.90;;;;;;6090311;23;20385;-85
2022/08/24 06:09:58;;;;;;;3.87;2.80;;;25.80;47.90;;;;;;6113891;23;20350;-85
2022/08/24 06:12:47;;;;;;;3.07;2.77;;;25.70;47.90;;;;;;6028830;23;20396;-85
2022/08/24 06:15:27;;;;;;;2.93;2.60;;;25.80;48.00;;;;;;6031496;23;20388;-84
2022/08/24 06:18:05;;;;;;;2.87;2.67;;;25.70;47.90;;;;;;6031280;23;20394;-84
2022/08/24 06:21:26;;;;;;;3.07;2.80;;;25.70;47.90;;;;;;6034713;23;20388;-84
2022/08/24 06:27:40;;;;;;;3.47;3.17;;;25.70;47.90;;;;;;6056082;23;20626;-84
2022/08/24 06:37:29;;;;;;;;;;;;;;;;;;;;;
2022/08/24 06:53:34;;;;;;;3.33;3.03;;;25.70;48.00;;;;;;5973420;23;20399;-85
2022/08/24 06:56:29;;;;;;;3.10;2.80;;;25.70;48.10;;;;;;5970640;24;20370;-85
2022/08/24 06:59:19;;;;;;;3.20;2.90;;;25.70;48.10;;;;;;5944492;24;20876;-86
2022/08/24 07:01:56;;;;;;;3.03;2.83;;;25.80;48.10;;;;;;5935732;23;20377;-86
2022/08/24 07:04:43;;;;;;;2.50;2.30;;;25.80;48.10;;;;;;6004088;23;20380;-86
2022/08/24 07:07:37;;;;;;;2.67;2.47;;;25.80;48.20;;;;;;6005264;23;20381;-84
2022/08/24 07:10:37;;;;;;;3.30;3.00;;;25.80;48.70;;;;;;6002835;23;20384;-85
2022/08/24 07:26:53;;;;;;;3.90;2.90;;;25.80;48.10;;;;;;6031083;23;20429;-85
2022/08/24 07:29:39;;;;;;;3.30;2.93;;;25.80;48.20;;;;;;6080274;23;20469;-85
2022/08/24 07:32:23;;;;;;;2.93;2.63;;;25.80;48.20;;;;;;6061345;23;20475;-85
2022/08/24 07:35:54;;;;;;;;;;;;;;;;;;;;;
2022/08/24 07:46:06;;;;;;;3.33;3.03;;;25.80;48.20;;;;;;5972223;24;20483;-85
2022/08/24 07:49:09;;;;;;;2.93;2.73;;;25.80;48.20;;;;;;5948032;24;20378;-85
2022/08/24 07:51:58;;;;;;;;;;;;;;;;;;;;;
2022/08/24 07:54:49;;;;;;;3.30;3.00;;;25.80;48.20;;;;;;5996168;23;20368;-85
2022/08/24 08:03:55;;;;;;;2.93;2.67;;;25.90;48.20;;;;;;6056766;23;20410;-84
2022/08/24 08:06:35;;;;;;;2.93;2.57;;;25.80;48.20;;;;;;6032339;23;20459;-85
2022/08/24 08:09:11;;;;;;;2.63;2.43;;;25.80;48.20;;;;;;6032197;23;20646;-84
2022/08/24 08:12:02;;;;;;;4.50;2.80;;;25.80;48.20;;;;;;5984103;23;20392;-84
2022/08/24 08:14:57;;;;;;;3.03;2.63;;;25.90;48.30;;;;;;6031113;23;20387;-84
2022/08/24 08:17:53;;;;;;;3.83;2.67;;;25.90;48.20;;;;;;6025518;23;20447;-85
2022/08/24 08:20:48;;;;;;;3.30;2.67;;;25.90;48.20;;;;;;6131798;23;20404;-86
2022/08/24 08:27:05;;;;;;;2.43;2.23;;;25.90;48.20;;;;;;6152785;23;20454;-85
2022/08/24 08:37:17;;;;;;;2.57;2.37;;;25.90;48.20;;;;;;6085502;23;20392;-85
2022/08/24 09:10:53;;;;;;;2.60;2.27;;;25.90;48.20;;;;;;5835880;24;20420;-84
2022/08/24 09:20:27;;;;;;;2.90;2.70;;;25.90;48.20;;;;;;5916767;24;20385;-85
2022/08/24 09:24:06;;;;;;;2.87;2.67;;;25.90;48.20;;;;;;5914672;24;20414;-85
2022/08/24 09:37:40;;;;;;;2.53;2.33;;;25.90;48.10;;;;;;5944843;23;20463;-84
2022/08/24 09:44:27;;;;;;;;;;;;;;;;;;;;;
2022/08/24 09:47:32;;;;;;;2.43;2.23;;;26.00;48.10;;;;;;5835878;24;20371;-85
2022/08/24 10:11:04;;;;;;;2.50;2.30;;;26.00;48.00;;;;;;5771056;24;20359;-84
2022/08/24 10:30:47;;;;;;;2.80;2.50;;;26.00;48.00;;;;;;5892106;24;20373;-85
2022/08/24 10:34:12;;;;;;;2.80;2.50;;;26.00;48.00;;;;;;5890200;24;20388;-85
2022/08/24 11:07:49;;;;;;;4.27;2.93;;;26.10;48.10;;;;;;5837420;24;20477;-84
2022/08/24 11:21:08;;;;;;;3.07;2.53;;;26.10;48.00;;;;;;5907888;24;20364;-85
2022/08/24 11:23:47;;;;;;;3.10;2.80;;;26.10;48.00;;;;;;5863591;24;20426;-85
2022/08/24 11:27:01;;;;;;;2.97;2.77;;;26.10;48.00;;;;;;5839716;24;20444;-84
2022/08/24 11:37:06;;;;;;;2.87;2.67;;;26.10;48.00;;;;;;5833268;24;20427;-84
2022/08/24 11:40:28;;;;;;;;;;;;;;;;;;;;;
2022/08/24 11:56:53;;;;;;;2.80;2.60;;;26.20;48.00;;;;;;5847383;24;20397;-84
2022/08/24 12:07:24;;;;;;;2.70;2.50;;;26.20;47.90;;;;;;5942900;24;20521;-83
2022/08/24 12:17:38;;;;;;;3.30;3.00;;;26.20;47.90;;;;;;5911876;24;20388;-84
2022/08/24 12:20:26;;;;;;;2.60;2.40;;;26.20;47.90;;;;;;5847102;24;20478;-82
2022/08/24 12:23:29;;;;;;;;;;;;;;;;;;;;;
2022/08/24 12:26:42;;;;;;;4.33;2.70;;;26.20;47.90;;;;;;6026342;23;20786;-82
2022/08/24 12:29:45;;;;;;;2.50;2.30;;;26.20;47.90;;;;;;5989397;23;20431;-84
2022/08/24 12:32:59;;;;;;;3.23;3.00;;;26.20;47.80;;;;;;6083620;23;20829;-83
2022/08/24 12:42:20;;;;;;;3.40;3.10;;;26.20;47.80;;;;;;6055437;23;20356;-82
2022/08/24 12:45:13;;;;;;;3.10;2.80;;;26.20;47.80;;;;;;6031079;23;20430;-83
2022/08/24 12:51:52;;;;;;;;;;;;;;;;;;;;;
2022/08/24 12:58:41;;;;;;;;;;;;;;;;;;;;;
2022/08/24 13:01:23;;;;;;;3.03;2.80;;;26.20;47.70;;;;;;5914402;24;20755;-83
2022/08/24 13:14:27;;;;;;;2.50;2.30;;;26.30;47.80;;;;;;5754720;25;20381;-83
2022/08/24 13:17:08;;;;;;;2.57;2.37;;;26.20;47.70;;;;;;5754865;25;20488;-84
2022/08/24 13:19:58;;;;;;;;;;;;;;;;;;;;;
2022/08/24 13:29:47;;;;;;;2.70;2.50;;;26.30;47.70;;;;;;5706510;25;20413;-84
2022/08/24 13:36:25;;;;;;;3.27;2.97;;;26.30;47.70;;;;;;5707534;25;20423;-83
2022/08/24 13:46:54;;;;;;;3.07;2.80;;;26.30;47.70;;;;;;5944398;23;20422;-83
2022/08/24 13:50:00;;;;;;;2.43;2.23;;;26.30;47.70;;;;;;5863370;24;20391;-83
2022/08/24 13:56:10;;;;;;;3.07;2.77;;;26.30;47.70;;;;;;5941965;23;20355;-83
2022/08/24 14:06:24;;;;;;;2.30;2.10;;;26.30;47.70;;;;;;5996090;23;20480;-82
2022/08/24 14:09:28;;;;;;;2.50;2.30;;;26.30;47.70;;;;;;5914729;24;20381;-82
2022/08/24 14:12:21;;;;;;;2.83;2.63;;;26.30;47.70;;;;;;5884650;24;20401;-82
2022/08/24 14:15:14;;;;;;;2.63;2.43;;;26.30;47.70;;;;;;5886942;24;20412;-84
2022/08/24 14:18:39;;;;;;;3.50;2.40;;;26.30;47.70;;;;;;5864133;24;20426;-82
2022/08/24 14:24:57;;;;;;;;;;;;;;;;;;;;;
2022/08/24 14:28:08;;;;;;;2.33;2.13;;;26.30;47.60;;;;;;5834555;24;20398;-82
2022/08/24 14:35:01;;;;;;;1.90;1.80;;;26.30;47.60;;;;;;5833643;24;20397;-83
2022/08/24 14:38:36;;;;;;;;;;;;;;;;;;;;;
2022/08/24 14:41:45;;;;;;;2.70;2.50;;;26.30;47.60;;;;;;5780363;24;20412;-83
2022/08/24 14:44:29;;;;;;;2.30;2.10;;;26.30;47.60;;;;;;5781134;24;20393;-83
2022/08/24 14:57:03;;;;;;;2.63;2.30;;;26.30;47.60;;;;;;5942137;23;20484;-82
2022/08/24 15:00:16;;;;;;;3.33;2.40;;;26.30;47.60;;;;;;5941084;24;20397;-82
2022/08/24 15:03:14;;;;;;;2.50;2.30;;;26.30;47.60;;;;;;5888104;24;20397;-82
2022/08/24 15:06:45;;;;;;;;;;;;;;;;;;;;;
2022/08/24 15:09:44;;;;;;;;;;;;;;;;;;;;;
2022/08/24 15:19:35;;;;;;;2.43;2.20;;;26.30;47.50;;;;;;5970594;24;20394;-83
2022/08/24 15:22:43;;;;;;;3.00;2.70;;;26.30;47.50;;;;;;5970808;24;20805;-83
2022/08/24 15:28:35;;;;;;;3.13;2.57;;;26.40;47.50;;;;;;5861542;24;20434;-83
2022/08/24 15:31:25;;;;;;;3.10;2.30;;;26.30;47.50;;;;;;5862502;24;20393;-83
2022/08/24 15:34:00;;;;;;;3.13;2.47;;;26.30;47.50;;;;;;5840140;24;20465;-83
2022/08/24 15:37:31;;;;;;;2.97;2.53;;;26.40;47.50;;;;;;5884896;24;20461;-83
2022/08/24 15:40:43;;;;;;;2.67;2.47;;;26.40;47.50;;;;;;5801866;24;20422;-83
2022/08/24 15:43:28;;;;;;;;;;;;;;;;;;;;;
2022/08/24 15:53:49;;;;;;;2.60;2.40;;;26.40;47.40;;;;;;5863329;24;20361;-82
2022/08/24 15:56:45;;;;;;;2.70;2.43;;;26.40;47.40;;;;;;5838016;24;20462;-82
2022/08/24 16:09:45;;;;;;;3.00;2.70;;;26.40;47.40;;;;;;5861281;24;20354;-84
2022/08/24 16:12:31;;;;;;;;;;;;;;;;;;;;;
2022/08/24 16:15:30;;;;;;;3.10;2.90;;;26.40;47.40;;;;;;5915311;24;20416;-84
2022/08/24 16:18:36;;;;;;;3.03;2.73;;;26.40;47.40;;;;;;5970121;24;20417;-84
2022/08/24 16:24:42;;;;;;;2.87;2.57;;;26.40;47.40;;;;;;5952299;23;20794;-83
2022/08/24 16:28:12;;;;;;;4.53;2.73;;;26.40;47.50;;;;;;6003328;23;20384;-84
2022/08/24 16:41:10;;;;;;;3.50;2.97;;;26.40;47.50;;;;;;5942749;24;20363;-84
2022/08/24 16:43:51;;;;;;;3.23;2.93;;;26.40;47.50;;;;;;5914504;24;20384;-83
2022/08/24 16:53:28;;;;;;;4.10;3.70;;;26.40;47.50;;;;;;5948659;24;20455;-84
2022/08/24 16:59:21;;;;;;;3.40;3.10;;;26.40;47.50;;;;;;5965501;24;20422;-84
2022/08/24 17:05:31;;;;;;;4.07;3.67;;;26.40;47.50;;;;;;5944836;24;20449;-83
2022/08/24 17:08:48;;;;;;;4.03;3.70;;;26.40;47.50;;;;;;5946250;24;20382;-84
2022/08/24 17:15:21;;;;;;;3.37;3.07;;;26.40;47.50;;;;;;5998980;23;20361;-84
2022/08/24 17:28:48;;;;;;;4.30;3.80;;;26.40;47.60;;;;;;6000256;23;20460;-83
2022/08/24 17:31:30;;;;;;;4.13;3.60;;;26.40;47.60;;;;;;5891550;24;20380;-83
2022/08/24 17:33:58;;;;;;;4.97;4.47;;;26.40;47.60;;;;;;5974253;24;20456;-83
2022/08/24 17:36:29;;;;;;;4.30;3.73;;;26.40;47.60;;;;;;5974136;24;20417;-83
2022/08/24 17:39:10;;;;;;;4.33;3.97;;;26.40;47.60;;;;;;5973315;24;20389;-82
2022/08/24 17:41:54;;;;;;;3.60;3.27;;;26.40;47.60;;;;;;5952678;24;20916;-83
2022/08/24 17:44:44;;;;;;;4.17;3.73;;;26.40;47.60;;;;;;5970217;24;20385;-83
2022/08/24 17:47:19;;;;;;;4.97;4.57;;;26.40;47.60;;;;;;6005380;23;20481;-84
2022/08/24 17:50:33;;;;;;;4.50;3.97;;;26.40;47.60;;;;;;6139915;23;20388;-83
2022/08/24 17:53:32;;;;;;;4.60;3.40;;;26.40;47.60;;;;;;6137258;23;20391;-83
2022/08/24 17:56:09;;;;;;;3.60;3.30;;;26.40;47.60;;;;;;6144578;23;20419;-83
2022/08/24 18:01:35;;;;;;;5.70;3.40;;;26.40;47.70;;;;;;6147947;23;20360;-83
2022/08/24 18:04:24;;;;;;;3.53;3.23;;;26.40;47.60;;;;;;6117575;23;20389;-83
2022/08/24 18:10:15;;;;;;;3.70;3.40;;;26.40;47.70;;;;;;6116651;23;20408;-83
2022/08/24 18:15:54;;;;;;;3.73;3.37;;;26.40;47.70;;;;;;6143493;23;20391;-84
2022/08/24 18:19:18;;;;;;;4.00;3.57;;;26.40;47.70;;;;;;6120018;23;20416;-83
2022/08/24 18:21:51;;;;;;;4.57;3.93;;;26.50;47.70;;;;;;6142030;23;20377;-83
2022/08/24 18:24:44;;;;;;;;;;;;;;;;;;;;;
2022/08/24 18:27:29;;;;;;;5.50;4.13;;;26.40;47.70;;;;;;6142874;23;20400;-84
2022/08/24 18:30:32;;;;;;;4.47;4.07;;;26.40;47.70;;;;;;6118664;23;20392;-84
2022/08/24 18:56:55;;;;;;;;;;;;;;;;;;;;;
2022/08/24 18:59:29;;;;;;;4.80;4.40;;;26.40;48.00;;;;;;6027083;23;20388;-82
2022/08/24 19:02:37;;;;;;;4.37;3.97;;;26.40;47.90;;;;;;6026307;23;20381;-82
2022/08/24 19:05:26;;;;;;;4.57;3.60;;;26.40;47.90;;;;;;6027117;23;20484;-82
2022/08/24 19:08:07;;;;;;;4.60;4.20;;;26.40;47.90;;;;;;6005557;23;20388;-83
2022/08/24 19:13:41;;;;;;;4.40;3.97;;;26.40;47.90;;;;;;6026743;23;20428;-83
2022/08/24 19:16:16;;;;;;;3.87;3.57;;;26.40;47.90;;;;;;6034461;23;20837;-83
2022/08/24 19:18:57;;;;;;;4.00;3.60;;;26.40;47.90;;;;;;6145459;23;20409;-83
2022/08/24 19:21:48;;;;;;;4.50;4.00;;;26.40;47.80;;;;;;6145142;23;20385;-83
2022/08/24 19:25:13;;;;;;;;;;;;;;;;;;;;;
2022/08/24 19:35:11;;;;;;;3.97;3.47;;;26.40;47.80;;;;;;5943622;23;20409;-84
2022/08/24 19:38:27;;;;;;;4.77;4.00;;;26.40;47.90;;;;;;5943701;24;20379;-83
2022/08/24 19:41:07;;;;;;;3.70;3.40;;;26.40;47.90;;;;;;5888502;24;20458;-83
2022/08/24 19:54:24;;;;;;;;;;;;;;;;;;;;;
2022/08/24 20:04:11;;;;;;;4.40;4.00;;;26.40;48.10;;;;;;5908139;24;20362;-84
2022/08/24 20:06:52;;;;;;;3.87;3.50;;;26.40;48.10;;;;;;5925694;24;20431;-83
2022/08/24 20:09:51;;;;;;;4.10;3.70;;;26.40;48.10;;;;;;5996841;24;20387;-83
2022/08/24 20:12:22;;;;;;;4.03;3.70;;;26.40;48.10;;;;;;5998676;24;20382;-82
2022/08/24 20:15:12;;;;;;;4.40;4.00;;;26.40;48.20;;;;;;5974576;24;20386;-83
2022/08/24 20:18:06;;;;;;;;;;;;;;;;;;;;;
2022/08/24 20:55:08;;;;;;;4.13;3.53;;;26.30;48.30;;;;;;6028947;23;20364;-85
2022/08/24 21:04:04;;;;;;;;;;;;;;;;;;;;;
2022/08/24 21:07:06;;;;;;;4.40;4.00;;;26.30;48.40;;;;;;5967553;24;20449;-84
2022/08/24 21:26:40;;;;;;;4.23;3.83;;;26.30;48.50;;;;;;5888622;24;20501;-85
2022/08/24 21:35:45;;;;;;;4.60;4.10;;;26.30;48.50;;;;;;5810968;24;20452;-84
2022/08/24 21:38:21;;;;;;;4.70;4.10;;;26.40;48.50;;;;;;5790687;24;20413;-84
2022/08/24 21:40:49;;;;;;;4.37;3.97;;;26.30;48.50;;;;;;5811988;24;20384;-84
2022/08/24 21:43:32;;;;;;;4.47;4.07;;;26.40;48.50;;;;;;5875119;24;20415;-84
2022/08/24 21:46:14;;;;;;;5.40;4.30;;;26.40;48.50;;;;;;5897066;24;20424;-84
2022/08/24 21:59:28;;;;;;;;;;;;;;;;;;;;;
2022/08/24 22:05:39;;;;;;;5.10;4.43;;;26.30;48.50;;;;;;5919203;24;20780;-84
2022/08/24 22:08:27;;;;;;;5.20;4.70;;;26.30;48.50;;;;;;5927587;23;20396;-84
2022/08/24 22:11:20;;;;;;;;;;;;;;;;;;;;;
2022/08/24 22:17:54;;;;;;;4.93;4.43;;;26.40;48.60;;;;;;6059285;23;20445;-85
2022/08/24 22:20:44;;;;;;;5.20;4.60;;;26.40;48.70;;;;;;6034084;23;20436;-86
2022/08/24 22:23:16;;;;;;;5.20;4.70;;;26.30;48.60;;;;;;6034788;23;20438;-86
2022/08/24 22:26:17;;;;;;;4.40;4.10;;;26.40;48.70;;;;;;6035377;23;20487;-86
2022/08/24 22:28:55;;;;;;;5.23;4.77;;;26.40;48.60;;;;;;6055909;23;20387;-86
2022/08/24 22:31:42;;;;;;;5.53;4.90;;;26.40;48.70;;;;;;6029924;23;20407;-86
2022/08/24 22:34:41;;;;;;;5.53;4.90;;;26.40;48.70;;;;;;6034155;23;20407;-86
2022/08/24 22:37:35;;;;;;;5.57;5.07;;;26.40;48.70;;;;;;6022547;23;20799;-86
2022/08/24 22:40:38;;;;;;;6.80;4.70;;;26.40;48.70;;;;;;6056218;23;20378;-85
2022/08/24 22:43:20;;;;;;;5.67;5.17;;;26.40;48.80;;;;;;6031612;23;20381;-85
2022/08/24 22:46:00;;;;;;;5.63;4.97;;;26.40;48.80;;;;;;6108805;23;20420;-85
2022/08/24 22:48:38;;;;;;;5.33;4.83;;;26.40;48.80;;;;;;6145666;23;20404;-85
2022/08/24 22:51:18;;;;;;;4.50;4.10;;;26.40;48.80;;;;;;6144721;23;20427;-85
2022/08/24 22:54:04;;;;;;;5.10;4.70;;;26.40;48.80;;;;;;6143553;23;20381;-86
2022/08/24 22:56:53;;;;;;;5.40;4.90;;;26.40;48.80;;;;;;6145581;23;20391;-85
2022/08/24 22:59:46;;;;;;;5.27;4.87;;;26.40;48.80;;;;;;6144025;23;20381;-85
2022/08/24 23:02:19;;;;;;;4.90;4.50;;;26.40;48.80;;;;;;6143321;23;20384;-85
2022/08/24 23:04:52;;;;;;;5.20;4.70;;;26.40;48.80;;;;;;6145545;23;20381;-85
2022/08/24 23:11:04;;;;;;;6.07;4.47;;;26.40;48.90;;;;;;6143985;23;20393;-85
2022/08/24 23:13:47;;;;;;;5.40;4.90;;;26.40;48.90;;;;;;6143075;23;20412;-83
2022/08/24 23:16:43;;;;;;;5.93;5.43;;;26.40;48.90;;;;;;6141453;23;20381;-83
2022/08/24 23:20:09;;;;;;;6.17;5.57;;;26.40;48.90;;;;;;6132039;23;20500;-83
2022/08/24 23:26:27;;;;;;;6.40;5.80;;;26.40;49.00;;;;;;6173625;23;20418;-83
2022/08/24 23:29:16;;;;;;;5.30;4.87;;;26.40;49.00;;;;;;6147753;23;20431;-83
2022/08/24 23:32:00;;;;;;;5.03;4.63;;;26.40;49.00;;;;;;6148486;23;20380;-83
2022/08/24 23:37:35;;;;;;;4.43;4.10;;;26.40;49.00;;;;;;6176147;23;20770;-84
2022/08/24 23:40:32;;;;;;;5.87;5.27;;;26.40;49.10;;;;;;6171812;23;20368;-84
2022/08/24 23:43:09;;;;;;;6.00;5.40;;;26.40;49.00;;;;;;6147754;23;20372;-84
2022/08/24 23:52:10;;;;;;;6.40;5.80;;;26.40;49.00;;;;;;6178651;23;20348;-84
